createdAt,value
2019-05-25T00:01:06.004Z,11.57
2019-05-25T00:03:33.181Z,11.57
2019-05-25T00:06:00.343Z,12.27
2019-05-25T00:08:27.523Z,11.67
2019-05-25T00:10:54.543Z,11.20
2019-05-25T00:13:22.802Z,11.20
2019-05-25T00:15:49.898Z,11.80
2019-05-25T00:18:17.079Z,11.83
2019-05-25T00:20:44.523Z,11.40
2019-05-25T00:23:11.673Z,10.30
2019-05-25T00:25:39.090Z,11.00
2019-05-25T00:28:06.194Z,10.63
2019-05-25T00:30:33.748Z,11.10
2019-05-25T00:33:00.770Z,11.53
2019-05-25T00:35:27.884Z,11.60
2019-05-25T00:37:55.254Z,10.40
2019-05-25T00:40:22.346Z,11.93
2019-05-25T00:42:49.965Z,11.10
2019-05-25T00:45:17.066Z,12.40
2019-05-25T00:47:44.100Z,11.17
2019-05-25T00:50:12.219Z,12.60
2019-05-25T00:52:39.909Z,12.97
2019-05-25T00:55:07.827Z,12.40
2019-05-25T00:57:34.953Z,13.23
2019-05-25T01:00:03.394Z,13.17
2019-05-25T01:02:30.599Z,13.97
2019-05-25T01:04:57.971Z,12.40
2019-05-25T01:07:25.130Z,12.73
2019-05-25T01:09:52.307Z,13.83
2019-05-25T01:12:19.499Z,13.47
2019-05-25T01:14:46.748Z,12.50
2019-05-25T01:17:15.498Z,13.93
2019-05-25T01:19:42.575Z,14.70
2019-05-25T01:22:10.125Z,14.37
2019-05-25T01:24:44.371Z,14.60
2019-05-25T01:27:06.689Z,14.00
2019-05-25T01:29:34.228Z,16.70
2019-05-25T01:32:01.302Z,15.37
2019-05-25T01:34:28.732Z,15.43
2019-05-25T01:36:55.974Z,14.53
2019-05-25T01:39:23.572Z,14.80
2019-05-25T01:41:51.087Z,15.90
2019-05-25T01:44:18.287Z,16.47
2019-05-25T01:46:45.532Z,14.43
2019-05-25T01:49:13.825Z,15.03
2019-05-25T01:51:41.053Z,14.40
2019-05-25T01:54:08.516Z,16.60
2019-05-25T01:56:35.814Z,16.97
2019-05-25T01:59:03.487Z,15.10
2019-05-25T02:01:30.511Z,16.93
2019-05-25T02:03:57.570Z,16.37
2019-05-25T02:06:24.649Z,16.67
2019-05-25T02:08:51.988Z,17.43
2019-05-25T02:11:19.236Z,16.30
2019-05-25T02:13:47.478Z,18.17
2019-05-25T02:16:14.596Z,17.20
2019-05-25T02:18:45.640Z,15.73
2019-05-25T02:21:13.020Z,17.10
2019-05-25T02:23:40.211Z,17.00
2019-05-25T02:26:07.271Z,14.20
2019-05-25T02:31:46.101Z,13.10
2019-05-25T02:34:13.309Z,15.27
2019-05-25T02:36:40.614Z,13.87
2019-05-25T02:39:08.518Z,14.80
2019-05-25T02:41:36.063Z,14.80
2019-05-25T02:44:03.998Z,15.10
2019-05-25T02:46:31.402Z,15.50
2019-05-25T02:48:58.912Z,14.97
2019-05-25T02:51:26.109Z,15.67
2019-05-25T02:53:54.445Z,14.60
2019-05-25T02:56:21.735Z,14.40
2019-05-25T02:58:48.940Z,13.97
2019-05-25T03:01:16.204Z,14.70
2019-05-25T03:03:43.367Z,13.73
2019-05-25T03:06:11.979Z,13.20
2019-05-25T03:08:40.043Z,15.07
2019-05-25T03:11:07.563Z,14.30
2019-05-25T03:13:35.931Z,16.20
2019-05-25T03:16:03.344Z,15.80
2019-05-25T03:18:31.308Z,16.13
2019-05-25T03:20:58.513Z,14.03
2019-05-25T03:23:25.488Z,16.03
2019-05-25T03:25:52.364Z,14.10
2019-05-25T03:28:19.300Z,14.40
2019-05-25T03:30:46.639Z,16.27
2019-05-25T03:33:13.840Z,16.50
2019-05-25T03:35:41.336Z,17.13
2019-05-25T03:38:08.415Z,18.37
2019-05-25T03:40:36.470Z,17.10
2019-05-25T03:43:04.103Z,16.40
2019-05-25T03:45:31.111Z,17.47
2019-05-25T03:47:58.285Z,17.07
2019-05-25T03:50:25.535Z,17.40
2019-05-25T03:52:53.510Z,16.40
2019-05-25T03:55:21.506Z,17.93
2019-05-25T03:57:49.096Z,16.50
2019-05-25T04:00:24.496Z,16.80
2019-05-25T04:02:51.424Z,15.30
2019-05-25T04:05:18.737Z,14.27
2019-05-25T04:07:46.211Z,13.00
2019-05-25T04:10:13.282Z,16.20
2019-05-25T04:12:40.586Z,12.97
2019-05-25T04:15:08.031Z,14.67
2019-05-25T04:17:35.448Z,14.80
2019-05-25T04:20:03.411Z,14.10
2019-05-25T04:22:31.904Z,14.03
2019-05-25T04:24:58.969Z,14.10
2019-05-25T04:27:25.855Z,13.23
2019-05-25T04:29:53.412Z,12.93
2019-05-25T04:32:20.727Z,12.30
2019-05-25T04:34:49.216Z,14.00
2019-05-25T04:37:16.263Z,14.33
2019-05-25T04:39:43.592Z,13.00
2019-05-25T04:42:10.919Z,12.40
2019-05-25T04:44:38.283Z,12.63
2019-05-25T04:47:05.223Z,11.90
2019-05-25T04:49:32.715Z,11.73
2019-05-25T04:51:59.836Z,11.57
2019-05-25T04:54:27.163Z,11.40
2019-05-25T04:56:55.518Z,12.43
2019-05-25T04:59:23.571Z,12.30
2019-05-25T05:01:50.886Z,10.20
2019-05-25T05:04:18.468Z,11.00
2019-05-25T05:06:46.089Z,10.60
2019-05-25T05:09:13.392Z,11.80
2019-05-25T05:11:40.833Z,8.80
2019-05-25T05:14:08.523Z,9.90
2019-05-25T05:16:35.441Z,10.60
2019-05-25T05:19:03.249Z,10.60
2019-05-25T05:21:30.328Z,11.27
2019-05-25T05:23:57.599Z,10.80
2019-05-25T05:26:24.736Z,9.67
2019-05-25T05:28:51.574Z,10.53
2019-05-25T05:31:23.484Z,9.53
2019-05-25T05:33:47.896Z,10.07
2019-05-25T05:36:15.999Z,9.43
2019-05-25T05:38:44.598Z,10.10
2019-05-25T05:41:14.172Z,9.27
2019-05-25T05:43:43.914Z,10.87
2019-05-25T05:46:12.724Z,9.60
2019-05-25T05:48:41.637Z,9.47
2019-05-25T05:51:12.970Z,8.70
2019-05-25T05:53:42.214Z,9.10
2019-05-25T05:56:09.379Z,9.20
2019-05-25T05:58:36.879Z,9.03
2019-05-25T06:01:07.033Z,10.13
2019-05-25T06:03:34.337Z,9.93
2019-05-25T06:06:01.483Z,7.43
2019-05-25T06:08:28.732Z,9.50
2019-05-25T06:10:56.170Z,8.00
2019-05-25T06:13:23.871Z,8.20
2019-05-25T06:15:50.797Z,7.00
2019-05-25T06:18:18.291Z,7.93
2019-05-25T06:20:46.113Z,7.77
2019-05-25T06:23:13.675Z,6.57
2019-05-25T06:25:40.828Z,6.33
2019-05-25T06:28:08.413Z,6.97
2019-05-25T06:30:35.831Z,6.57
2019-05-25T06:33:03.185Z,6.00
2019-05-25T06:35:30.504Z,6.17
2019-05-25T06:37:57.940Z,5.27
2019-05-25T06:40:25.734Z,6.00
2019-05-25T06:42:56.192Z,5.30
2019-05-25T06:45:23.295Z,5.30
2019-05-25T06:47:50.488Z,5.50
2019-05-25T06:50:18.365Z,4.83
2019-05-25T06:52:46.075Z,5.10
2019-05-25T06:55:14.113Z,4.27
2019-05-25T06:57:43.650Z,5.23
2019-05-25T07:00:12.573Z,4.77
2019-05-25T07:02:40.317Z,4.90
2019-05-25T07:05:09.304Z,4.80
2019-05-25T07:07:36.817Z,4.97
2019-05-25T07:10:07.465Z,5.60
2019-05-25T07:12:34.985Z,4.90
2019-05-25T07:15:02.574Z,5.17
2019-05-25T07:17:30.534Z,6.50
2019-05-25T07:19:58.263Z,5.50
2019-05-25T07:22:25.866Z,6.33
2019-05-25T07:24:53.331Z,5.47
2019-05-25T07:27:21.203Z,6.40
2019-05-25T07:29:48.409Z,5.73
2019-05-25T07:32:15.683Z,6.37
2019-05-25T07:34:42.719Z,6.47
2019-05-25T07:37:10.078Z,6.30
2019-05-25T07:39:37.555Z,5.00
2019-05-25T07:42:04.724Z,6.23
2019-05-25T07:44:32.637Z,5.33
2019-05-25T07:46:59.787Z,5.80
2019-05-25T07:49:27.177Z,5.63
2019-05-25T07:51:54.063Z,6.50
2019-05-25T07:54:21.959Z,5.00
2019-05-25T07:56:49.322Z,4.83
2019-05-25T07:59:16.986Z,5.27
2019-05-25T08:01:44.336Z,5.73
2019-05-25T08:04:12.212Z,5.00
2019-05-25T08:06:39.339Z,5.20
2019-05-25T08:09:06.815Z,5.90
2019-05-25T08:11:34.262Z,4.90
2019-05-25T08:14:01.420Z,5.60
2019-05-25T08:16:28.903Z,6.50
2019-05-25T08:18:57.313Z,5.80
2019-05-25T08:21:24.655Z,4.80
2019-05-25T08:23:51.922Z,5.10
2019-05-25T08:26:19.071Z,6.10
2019-05-25T08:28:45.904Z,5.60
2019-05-25T08:31:12.936Z,5.73
2019-05-25T08:33:40.171Z,5.97
2019-05-25T08:36:07.643Z,6.50
2019-05-25T08:38:35.055Z,5.90
2019-05-25T08:41:02.364Z,4.97
2019-05-25T08:43:29.713Z,6.43
2019-05-25T08:45:57.231Z,5.60
2019-05-25T08:48:24.192Z,6.13
2019-05-25T08:50:52.729Z,6.00
2019-05-25T08:53:31.202Z,5.30
2019-05-25T08:55:50.062Z,6.40
2019-05-25T08:58:17.342Z,6.30
2019-05-25T09:00:45.130Z,5.30
2019-05-25T09:03:12.205Z,5.80
2019-05-25T09:05:39.582Z,5.57
2019-05-25T09:08:06.947Z,6.20
2019-05-25T09:10:34.225Z,6.23
2019-05-25T09:13:01.673Z,5.47
2019-05-25T09:15:28.746Z,5.20
2019-05-25T09:17:55.924Z,5.90
2019-05-25T09:20:23.520Z,6.07
2019-05-25T09:22:50.920Z,5.37
2019-05-25T09:25:18.017Z,6.87
2019-05-25T09:27:45.530Z,6.20
2019-05-25T09:30:12.757Z,5.40
2019-05-25T09:32:40.426Z,4.70
2019-05-25T09:35:09.128Z,5.03
2019-05-25T09:37:36.452Z,5.10
2019-05-25T09:40:04.658Z,4.93
2019-05-25T09:42:33.675Z,5.60
2019-05-25T09:45:01.366Z,4.70
2019-05-25T09:47:30.621Z,4.80
2019-05-25T09:49:57.762Z,5.17
2019-05-25T09:52:25.644Z,4.90
2019-05-25T09:54:55.631Z,4.87
2019-05-25T09:57:21.594Z,5.37
2019-05-25T09:59:48.840Z,6.00
2019-05-25T10:02:16.417Z,4.90
2019-05-25T10:04:43.688Z,4.83
2019-05-25T10:07:11.214Z,4.83
2019-05-25T10:09:40.498Z,4.03
2019-05-25T10:12:08.266Z,4.40
2019-05-25T10:14:35.631Z,5.27
2019-05-25T10:17:02.719Z,3.70
2019-05-25T10:19:30.391Z,4.80
2019-05-25T10:21:59.660Z,4.30
2019-05-25T10:24:27.095Z,5.00
2019-05-25T10:26:54.553Z,5.40
2019-05-25T10:29:35.960Z,4.53
2019-05-25T10:31:51.563Z,4.07
2019-05-25T10:34:19.216Z,4.70
2019-05-25T10:36:46.196Z,4.80
2019-05-25T10:39:13.390Z,4.97
2019-05-25T10:41:40.562Z,4.67
2019-05-25T10:44:07.930Z,4.53
2019-05-25T10:46:35.721Z,4.80
2019-05-25T10:49:02.893Z,5.37
2019-05-25T10:51:30.187Z,4.80
2019-05-25T10:53:57.457Z,4.90
2019-05-25T10:56:25.247Z,4.67
2019-05-25T10:58:54.084Z,4.57
2019-05-25T11:01:21.483Z,4.93
2019-05-25T11:03:48.897Z,4.83
2019-05-25T11:06:15.908Z,5.57
2019-05-25T11:08:45.480Z,5.40
2019-05-25T11:11:12.532Z,6.00
2019-05-25T11:13:39.665Z,4.80
2019-05-25T11:16:08.205Z,5.80
2019-05-25T11:18:36.507Z,6.33
2019-05-25T11:21:03.649Z,5.07
2019-05-25T11:23:30.757Z,5.63
2019-05-25T11:25:57.872Z,4.77
2019-05-25T11:28:25.409Z,4.50
2019-05-25T11:30:52.467Z,5.70
2019-05-25T11:33:19.738Z,5.53
2019-05-25T11:35:46.824Z,5.30
2019-05-25T11:38:14.059Z,4.30
2019-05-25T11:40:41.290Z,4.63
2019-05-25T11:43:10.303Z,3.80
2019-05-25T11:45:37.606Z,4.40
2019-05-25T11:48:04.889Z,4.20
2019-05-25T11:50:31.851Z,4.77
2019-05-25T11:53:00.191Z,4.70
2019-05-25T11:55:28.657Z,3.77
2019-05-25T11:57:56.166Z,4.30
2019-05-25T12:00:25.900Z,3.03
2019-05-25T12:02:54.023Z,1.90
2019-05-25T12:05:22.030Z,1.93
2019-05-25T12:07:49.829Z,2.03
2019-05-25T12:10:17.192Z,2.07
2019-05-25T12:12:44.611Z,1.70
2019-05-25T12:15:13.600Z,1.90
2019-05-25T12:17:40.830Z,1.50
2019-05-25T12:20:08.444Z,1.80
2019-05-25T12:22:35.898Z,1.57
2019-05-25T12:25:04.148Z,1.27
2019-05-25T12:27:31.538Z,1.10
2019-05-25T12:29:58.755Z,1.47
2019-05-25T12:32:25.932Z,1.30
2019-05-25T12:34:52.836Z,1.00
2019-05-25T12:37:20.105Z,1.07
2019-05-25T12:39:47.460Z,1.10
2019-05-25T12:42:14.923Z,0.97
2019-05-25T12:44:42.283Z,0.97
2019-05-25T12:47:09.623Z,1.50
2019-05-25T12:49:50.142Z,1.40
2019-05-25T12:52:06.229Z,1.27
2019-05-25T12:54:34.225Z,1.57
2019-05-25T12:57:02.896Z,1.00
2019-05-25T12:59:30.439Z,1.30
2019-05-25T13:01:57.857Z,1.20
2019-05-25T13:04:24.879Z,1.10
2019-05-25T13:06:51.889Z,1.20
2019-05-25T13:09:18.763Z,1.07
2019-05-25T13:11:46.263Z,1.30
2019-05-25T13:14:14.882Z,0.90
2019-05-25T13:16:42.148Z,1.30
2019-05-25T13:19:11.085Z,1.20
2019-05-25T13:21:39.771Z,1.10
2019-05-25T13:24:07.291Z,1.10
2019-05-25T13:26:34.660Z,1.10
2019-05-25T13:29:01.783Z,1.03
2019-05-25T13:31:29.319Z,1.10
2019-05-25T13:33:56.672Z,1.00
2019-05-25T13:36:23.914Z,1.40
2019-05-25T13:38:51.635Z,1.00
2019-05-25T13:41:20.244Z,1.17
2019-05-25T13:43:50.080Z,1.30
2019-05-25T13:46:16.592Z,1.23
2019-05-25T13:48:44.201Z,1.30
2019-05-25T13:51:11.659Z,1.47
2019-05-25T13:53:39.506Z,1.20
2019-05-25T13:56:06.747Z,1.53
2019-05-25T13:58:33.957Z,1.33
2019-05-25T14:01:01.416Z,0.70
2019-05-25T14:03:29.835Z,0.83
2019-05-25T14:05:58.763Z,1.10
2019-05-25T14:08:26.277Z,0.90
2019-05-25T14:10:53.492Z,1.00
2019-05-25T14:13:20.743Z,1.37
2019-05-25T14:15:48.211Z,0.90
2019-05-25T14:18:15.632Z,1.10
2019-05-25T14:20:43.070Z,1.20
2019-05-25T14:23:11.512Z,1.30
2019-05-25T14:25:38.407Z,1.30
2019-05-25T14:28:05.934Z,1.30
2019-05-25T14:30:33.293Z,1.30
2019-05-25T14:33:00.750Z,1.20
2019-05-25T14:35:28.287Z,1.40
2019-05-25T14:37:55.798Z,1.30
2019-05-25T14:40:23.117Z,1.30
2019-05-25T14:45:32.216Z,1.70
2019-05-25T14:48:00.264Z,1.90
2019-05-25T14:50:27.799Z,1.13
2019-05-25T14:52:57.326Z,1.70
2019-05-25T14:55:26.098Z,1.50
2019-05-25T14:57:54.269Z,1.90
2019-05-25T15:00:22.195Z,1.47
2019-05-25T15:02:49.612Z,1.53
2019-05-25T15:05:16.772Z,1.67
2019-05-25T15:07:43.767Z,1.60
2019-05-25T15:10:11.253Z,1.50
2019-05-25T15:12:38.446Z,1.87
2019-05-25T15:15:07.187Z,2.30
2019-05-25T15:17:37.245Z,2.37
2019-05-25T15:20:05.603Z,2.27
2019-05-25T15:22:33.076Z,1.97
2019-05-25T15:25:00.628Z,2.00
2019-05-25T15:27:28.034Z,1.37
2019-05-25T15:29:55.171Z,1.50
2019-05-25T15:32:23.122Z,1.93
2019-05-25T15:34:50.193Z,1.80
2019-05-25T15:37:17.948Z,1.90
2019-05-25T15:39:46.352Z,1.80
2019-05-25T15:42:13.542Z,2.00
2019-05-25T15:44:41.155Z,1.53
2019-05-25T15:47:08.132Z,1.83
2019-05-25T15:49:35.200Z,1.77
2019-05-25T15:52:02.702Z,1.90
2019-05-25T15:54:30.254Z,2.00
2019-05-25T15:56:58.283Z,1.60
2019-05-25T15:59:26.184Z,2.43
2019-05-25T16:01:55.501Z,1.90
2019-05-25T16:04:22.697Z,2.73
2019-05-25T16:06:49.889Z,3.00
2019-05-25T16:09:17.167Z,1.93
2019-05-25T16:11:44.750Z,2.00
2019-05-25T16:14:12.193Z,2.03
2019-05-25T16:16:39.561Z,2.10
2019-05-25T16:19:06.997Z,2.80
2019-05-25T16:21:35.456Z,2.60
2019-05-25T16:24:03.069Z,2.70
2019-05-25T16:26:44.942Z,4.00
2019-05-25T16:28:59.649Z,2.80
2019-05-25T16:31:27.131Z,3.60
2019-05-25T16:33:54.502Z,3.40
2019-05-25T16:36:21.838Z,4.03
2019-05-25T16:38:49.005Z,2.30
2019-05-25T16:41:16.465Z,2.60
2019-05-25T16:43:44.077Z,2.30
2019-05-25T16:46:11.524Z,3.40
2019-05-25T16:48:38.746Z,5.20
2019-05-25T16:51:06.161Z,3.73
2019-05-25T16:53:35.577Z,4.80
2019-05-25T16:56:03.059Z,2.67
2019-05-25T16:58:30.381Z,3.60
2019-05-25T17:00:58.662Z,3.10
2019-05-25T17:03:28.545Z,3.70
2019-05-25T17:05:56.685Z,18.50
2019-05-25T17:08:23.920Z,9.77
2019-05-25T17:10:51.448Z,4.10
2019-05-25T17:13:19.072Z,3.30
2019-05-25T17:15:47.304Z,3.33
2019-05-25T17:18:15.019Z,2.90
2019-05-25T17:20:42.332Z,3.43
2019-05-25T17:23:10.144Z,5.07
2019-05-25T17:25:37.483Z,3.10
2019-05-25T17:28:04.756Z,3.60
2019-05-25T17:30:38.003Z,6.73
2019-05-25T17:33:05.561Z,4.70
2019-05-25T17:35:34.033Z,3.60
2019-05-25T17:38:01.586Z,3.67
2019-05-25T17:40:29.147Z,3.97
2019-05-25T17:42:56.460Z,4.80
2019-05-25T17:45:24.589Z,4.07
2019-05-25T17:47:51.916Z,4.17
2019-05-25T17:50:19.081Z,4.67
2019-05-25T17:52:46.459Z,4.13
2019-05-25T17:55:13.692Z,4.33
2019-05-25T17:57:41.126Z,5.00
2019-05-25T18:00:09.045Z,3.90
2019-05-25T18:02:38.455Z,4.40
2019-05-25T18:05:07.403Z,4.17
2019-05-25T18:07:35.310Z,4.80
2019-05-25T18:10:03.167Z,4.90
2019-05-25T18:12:30.487Z,5.20
2019-05-25T18:14:58.091Z,4.20
2019-05-25T18:17:25.487Z,4.43
2019-05-25T18:19:52.759Z,5.03
2019-05-25T18:22:20.215Z,4.70
2019-05-25T18:24:47.690Z,4.30
2019-05-25T18:27:14.796Z,5.47
2019-05-25T18:29:42.022Z,4.40
2019-05-25T18:32:09.631Z,3.90
2019-05-25T18:34:36.693Z,4.20
2019-05-25T18:37:04.271Z,3.87
2019-05-25T18:39:31.871Z,6.80
2019-05-25T18:41:59.037Z,5.50
2019-05-25T18:44:26.134Z,14.00
2019-05-25T18:46:53.618Z,4.27
2019-05-25T18:49:20.543Z,22.10
2019-05-25T18:51:48.564Z,5.10
2019-05-25T18:54:16.071Z,4.87
2019-05-25T18:56:43.386Z,5.20
2019-05-25T18:59:10.718Z,4.10
2019-05-25T19:01:38.508Z,4.47
2019-05-25T19:04:05.599Z,3.97
2019-05-25T19:06:33.102Z,3.83
2019-05-25T19:09:00.653Z,4.63
2019-05-25T19:11:28.123Z,3.90
2019-05-25T19:13:55.530Z,4.20
2019-05-25T19:16:23.099Z,5.03
2019-05-25T19:18:50.813Z,5.03
2019-05-25T19:21:18.035Z,5.80
2019-05-25T19:23:45.280Z,4.20
2019-05-25T19:26:12.584Z,4.27
2019-05-25T19:28:40.289Z,4.20
2019-05-25T19:31:08.145Z,4.60
2019-05-25T19:33:35.411Z,4.30
2019-05-25T19:36:02.710Z,3.90
2019-05-25T19:38:30.157Z,6.77
2019-05-25T19:40:57.230Z,5.33
2019-05-25T19:43:24.624Z,5.33
2019-05-25T19:45:52.119Z,6.33
2019-05-25T19:48:19.468Z,5.50
2019-05-25T19:50:47.435Z,6.17
2019-05-25T19:53:14.673Z,5.77
2019-05-25T19:55:42.607Z,4.73
2019-05-25T19:58:10.258Z,5.80
2019-05-25T20:00:37.684Z,8.20
2019-05-25T20:03:04.997Z,5.50
2019-05-25T20:05:32.455Z,4.70
2019-05-25T20:07:59.738Z,4.27
2019-05-25T20:10:27.060Z,4.00
2019-05-25T20:12:54.880Z,4.17
2019-05-25T20:15:22.013Z,4.17
2019-05-25T20:17:49.919Z,3.83
2019-05-25T20:20:17.579Z,5.70
2019-05-25T20:22:45.846Z,5.30
2019-05-25T20:25:13.145Z,4.80
2019-05-25T20:27:40.779Z,4.23
2019-05-25T20:30:08.109Z,5.73
2019-05-25T20:32:35.362Z,5.03
2019-05-25T20:35:02.696Z,4.80
2019-05-25T20:37:30.618Z,3.70
2019-05-25T20:39:58.201Z,4.07
2019-05-25T20:42:25.559Z,3.97
2019-05-25T20:44:52.711Z,6.23
2019-05-25T20:47:20.808Z,4.80
2019-05-25T20:49:50.296Z,5.50
2019-05-25T20:52:17.673Z,5.90
2019-05-25T20:54:45.213Z,5.60
2019-05-25T20:57:12.784Z,5.20
2019-05-25T20:59:40.515Z,4.83
2019-05-25T21:02:09.127Z,4.60
2019-05-25T21:04:36.294Z,5.57
2019-05-25T21:07:03.562Z,6.20
2019-05-25T21:09:31.434Z,7.00
2019-05-25T21:11:58.677Z,5.60
2019-05-25T21:14:25.664Z,5.97
2019-05-25T21:16:52.640Z,5.30
2019-05-25T21:19:19.597Z,4.73
2019-05-25T21:21:47.308Z,4.90
2019-05-25T21:24:14.539Z,5.17
2019-05-25T21:26:42.123Z,4.90
2019-05-25T21:29:09.483Z,3.90
2019-05-25T21:31:38.089Z,4.30
2019-05-25T21:34:05.247Z,3.07
2019-05-25T21:36:32.626Z,3.70
2019-05-25T21:39:00.789Z,3.90
2019-05-25T21:41:28.808Z,3.83
2019-05-25T21:43:55.873Z,3.70
2019-05-25T21:46:23.114Z,4.00
2019-05-25T21:48:50.348Z,4.50
2019-05-25T21:51:17.625Z,3.83
2019-05-25T21:53:45.697Z,4.30
2019-05-25T21:56:13.728Z,3.60
2019-05-25T21:58:40.975Z,4.43
2019-05-25T22:01:08.620Z,3.63
2019-05-25T22:03:37.746Z,3.73
2019-05-25T22:06:05.141Z,3.67
2019-05-25T22:08:32.538Z,4.23
2019-05-25T22:11:00.138Z,3.37
2019-05-25T22:13:28.863Z,4.23
2019-05-25T22:15:56.916Z,3.63
2019-05-25T22:18:24.510Z,3.80
2019-05-25T22:20:51.841Z,4.00
2019-05-25T22:23:19.232Z,3.57
2019-05-25T22:25:48.483Z,3.70
2019-05-25T22:28:15.635Z,4.30
2019-05-25T22:30:42.494Z,4.13
2019-05-25T22:33:09.770Z,4.47
2019-05-25T22:35:37.069Z,4.53
2019-05-25T22:38:05.949Z,4.17
2019-05-25T22:40:33.480Z,4.50
2019-05-25T22:43:03.213Z,4.53
2019-05-25T22:45:30.402Z,3.90
2019-05-25T22:47:57.637Z,3.90
2019-05-25T22:50:24.623Z,4.60
2019-05-25T22:52:51.732Z,3.67
2019-05-25T22:55:20.909Z,4.07
2019-05-25T22:57:48.486Z,3.83
2019-05-25T23:00:16.808Z,4.27
2019-05-25T23:02:44.395Z,4.23
2019-05-25T23:05:12.109Z,4.10
2019-05-25T23:07:40.681Z,4.50
2019-05-25T23:10:08.658Z,3.77
2019-05-25T23:12:35.703Z,4.23
2019-05-25T23:15:03.795Z,4.73
2019-05-25T23:17:31.263Z,4.40
2019-05-25T23:19:58.476Z,4.50
2019-05-25T23:22:25.949Z,4.53
2019-05-25T23:24:53.188Z,5.07
2019-05-25T23:27:20.400Z,4.27
2019-05-25T23:29:47.492Z,4.50
2019-05-25T23:32:15.910Z,4.40
2019-05-25T23:34:43.233Z,4.40
2019-05-25T23:37:15.013Z,4.20
2019-05-25T23:39:41.543Z,4.50
2019-05-25T23:42:08.946Z,4.73
2019-05-25T23:44:36.314Z,4.60
2019-05-25T23:47:04.687Z,5.00
2019-05-25T23:49:31.993Z,4.77
2019-05-25T23:51:58.956Z,4.70
2019-05-25T23:54:26.591Z,4.63
2019-05-25T23:56:53.964Z,4.23
2019-05-25T23:59:22.823Z,5.50
